Time;durP1;ratioP1;P1;durP2;ratioP2;P2;SDS_P1;SDS_P2;PMS_P1;PMS_P2;Temp;Humidity;BMP_temperature;BMP_pressure;BME280_temperature;BME280_humidity;BME280_pressure;Samples;Min_cycle;Max_cycle;Signal;HPM_P1;HPM_P2
2022/07/24 00:00:29;;;;;;;26.73;4.43;;;41.00;33.00;;;;;;4975268;28;20053;-63
2022/07/24 00:02:55;;;;;;;27.67;3.88;;;41.10;33.20;;;;;;4991001;28;20425;-63
2022/07/24 00:05:21;;;;;;;26.13;4.28;;;41.10;33.50;;;;;;4994568;28;20446;-63
2022/07/24 00:07:48;;;;;;;27.92;4.40;;;41.10;33.10;;;;;;5012164;28;20031;-64
2022/07/24 00:10:17;;;;;;;25.75;4.43;;;41.20;33.40;;;;;;5028818;28;20533;-64
2022/07/24 00:12:44;;;;;;;28.58;4.50;;;41.10;33.10;;;;;;4984902;28;20779;-61
2022/07/24 00:15:10;;;;;;;31.45;4.22;;;41.10;32.80;;;;;;5024123;28;20070;-68
2022/07/24 00:17:37;;;;;;;28.73;4.28;;;40.90;33.10;;;;;;5030916;28;20066;-63
2022/07/24 00:20:08;;;;;;;29.05;4.28;;;40.80;33.80;;;;;;5017960;28;20044;-66
2022/07/24 00:22:35;;;;;;;22.00;3.97;;;40.70;34.60;;;;;;4994600;28;20096;-66
2022/07/24 00:25:05;;;;;;;31.08;4.47;;;40.70;34.50;;;;;;5001039;28;20045;-66
2022/07/24 00:27:31;;;;;;;26.92;4.45;;;40.70;34.60;;;;;;5015046;28;20054;-66
2022/07/24 00:29:58;;;;;;;28.70;4.18;;;40.70;34.70;;;;;;4993298;28;20050;-66
2022/07/24 00:32:27;;;;;;;26.00;4.38;;;40.70;33.80;;;;;;5001729;28;20573;-65
2022/07/24 00:34:53;;;;;;;24.67;4.10;;;40.50;33.20;;;;;;4991321;28;20071;-64
2022/07/24 00:37:20;;;;;;;25.65;4.72;;;40.70;33.30;;;;;;5007324;28;20077;-65
2022/07/24 00:39:47;;;;;;;27.52;4.22;;;40.50;33.30;;;;;;5009105;28;20173;-65
2022/07/24 00:42:14;;;;;;;23.92;3.92;;;40.50;33.20;;;;;;5009489;28;20071;-67
2022/07/24 00:44:40;;;;;;;18.05;3.22;;;40.40;32.70;;;;;;4989457;28;20064;-67
2022/07/24 00:47:07;;;;;;;19.98;3.55;;;40.40;33.40;;;;;;5006504;28;20082;-65
2022/07/24 00:49:33;;;;;;;24.90;3.75;;;40.50;33.20;;;;;;4991195;28;20097;-66
2022/07/24 00:52:00;;;;;;;39.35;5.05;;;40.40;33.90;;;;;;4990740;28;20063;-65
2022/07/24 00:54:26;;;;;;;25.63;4.00;;;40.30;35.10;;;;;;4991367;28;20105;-66
2022/07/24 00:56:54;;;;;;;30.70;4.30;;;40.20;34.70;;;;;;4991333;28;20058;-65
2022/07/24 00:59:21;;;;;;;25.92;4.15;;;40.10;35.10;;;;;;4990518;28;20059;-64
2022/07/24 01:01:49;;;;;;;41.70;5.70;;;40.00;35.80;;;;;;4989949;28;20053;-66
2022/07/24 01:04:15;;;;;;;29.52;4.32;;;39.90;35.20;;;;;;4957440;28;20553;-66
2022/07/24 01:06:43;;;;;;;29.42;3.75;;;39.80;35.30;;;;;;4986327;28;20485;-65
2022/07/24 01:09:10;;;;;;;25.50;3.92;;;39.80;35.50;;;;;;5006123;28;20128;-65
2022/07/24 01:11:38;;;;;;;31.63;4.80;;;39.80;35.80;;;;;;4974613;28;20194;-66
2022/07/24 01:14:06;;;;;;;34.22;4.50;;;39.80;35.90;;;;;;5001726;28;20506;-64
2022/07/24 01:16:34;;;;;;;40.38;5.25;;;39.70;36.80;;;;;;4990119;28;20060;-65
2022/07/24 01:19:00;;;;;;;33.13;6.55;;;39.70;37.40;;;;;;5006998;28;20524;-64
2022/07/24 01:21:26;;;;;;;35.53;5.05;;;39.70;38.10;;;;;;4990218;28;20052;-65
2022/07/24 01:23:53;;;;;;;34.70;5.35;;;39.50;38.40;;;;;;4974560;28;20064;-64
2022/07/24 01:26:19;;;;;;;31.58;5.70;;;39.40;38.90;;;;;;5009120;28;20257;-63
2022/07/24 01:28:46;;;;;;;40.22;4.90;;;39.40;38.90;;;;;;4995611;28;20142;-64
2022/07/24 01:31:12;;;;;;;29.38;5.35;;;39.30;38.70;;;;;;4977771;28;20052;-65
2022/07/24 01:33:38;;;;;;;27.70;4.95;;;39.30;39.00;;;;;;5013363;28;20551;-64
2022/07/24 01:36:05;;;;;;;26.95;5.00;;;39.20;37.40;;;;;;4977850;28;20088;-64
2022/07/24 01:38:32;;;;;;;27.80;5.25;;;39.10;39.70;;;;;;4996014;28;20519;-65
2022/07/24 01:40:58;;;;;;;25.08;4.45;;;39.00;40.00;;;;;;4994796;28;20062;-64
2022/07/24 01:43:25;;;;;;;29.35;5.20;;;38.80;41.30;;;;;;5012142;28;20425;-64
2022/07/24 01:45:51;;;;;;;25.73;4.97;;;38.70;40.90;;;;;;4995094;28;20079;-65
2022/07/24 01:48:17;;;;;;;35.03;4.95;;;38.60;41.10;;;;;;4994598;28;20061;-65
2022/07/24 01:50:44;;;;;;;28.50;5.30;;;38.50;41.30;;;;;;4994067;28;21021;-64
2022/07/24 01:53:10;;;;;;;32.83;5.40;;;38.50;41.20;;;;;;4993934;28;20416;-64
2022/07/24 01:55:37;;;;;;;31.58;4.97;;;38.50;41.20;;;;;;4993663;28;20061;-65
2022/07/24 01:58:03;;;;;;;25.60;4.55;;;38.30;41.60;;;;;;4993722;28;20060;-66
2022/07/24 02:00:30;;;;;;;25.92;5.05;;;38.30;40.90;;;;;;4994768;28;20975;-65
2022/07/24 02:02:56;;;;;;;18.38;4.32;;;38.20;41.20;;;;;;4994681;28;20091;-65
2022/07/24 02:05:22;;;;;;;22.40;4.65;;;38.10;41.10;;;;;;4994437;28;20058;-62
2022/07/24 02:07:57;;;;;;;33.65;4.88;;;38.00;40.60;;;;;;5014338;28;20114;-63
2022/07/24 02:10:25;;;;;;;25.90;4.63;;;37.90;40.50;;;;;;5011150;28;20053;-64
2022/07/24 02:12:51;;;;;;;35.13;5.32;;;37.90;40.90;;;;;;4976972;28;20424;-64
2022/07/24 02:15:17;;;;;;;30.23;4.40;;;37.80;41.00;;;;;;5011655;28;20062;-64
2022/07/24 02:17:51;;;;;;;28.25;4.53;;;37.70;41.00;;;;;;5010207;28;20540;-63
2022/07/24 02:20:18;;;;;;;36.75;5.70;;;37.60;41.20;;;;;;5009986;28;20070;-64
2022/07/24 02:22:45;;;;;;;32.28;4.97;;;37.50;41.10;;;;;;5011728;28;20490;-68
2022/07/24 02:25:12;;;;;;;33.42;4.97;;;37.40;42.10;;;;;;4993432;28;20156;-65
2022/07/24 02:27:39;;;;;;;27.23;4.95;;;37.30;42.20;;;;;;5011353;28;20163;-64
2022/07/24 02:30:10;;;;;;;31.27;5.45;;;37.30;42.00;;;;;;4994543;28;20080;-63
2022/07/24 02:32:36;;;;;;;35.65;5.30;;;37.20;41.80;;;;;;4994581;28;20060;-65
2022/07/24 02:35:03;;;;;;;30.75;5.15;;;37.20;42.20;;;;;;5003799;28;20445;-63
2022/07/24 02:37:29;;;;;;;29.40;5.35;;;37.10;42.20;;;;;;4994187;28;20461;-62
2022/07/24 02:39:56;;;;;;;22.45;4.18;;;37.10;42.50;;;;;;4977943;28;20069;-63
2022/07/24 02:42:22;;;;;;;26.08;4.80;;;37.00;43.30;;;;;;4993786;28;20076;-64
2022/07/24 02:44:49;;;;;;;32.80;5.45;;;36.90;43.30;;;;;;4991308;28;20095;-64
2022/07/24 02:47:15;;;;;;;32.88;5.85;;;36.90;43.40;;;;;;5007875;28;20643;-63
2022/07/24 02:49:41;;;;;;;31.73;5.50;;;36.90;43.20;;;;;;5007593;28;20109;-65
2022/07/24 02:52:08;;;;;;;27.02;4.95;;;36.80;43.40;;;;;;4991728;28;20066;-63
2022/07/24 02:54:34;;;;;;;31.92;5.20;;;36.80;43.90;;;;;;4992640;28;20068;-63
2022/07/24 02:57:00;;;;;;;25.15;5.47;;;36.70;44.30;;;;;;5007940;28;20338;-62
2022/07/24 02:59:27;;;;;;;23.58;4.88;;;36.60;44.50;;;;;;4994737;28;20129;-64
2022/07/24 03:01:53;;;;;;;22.73;5.15;;;36.50;44.80;;;;;;4992941;28;20071;-65
2022/07/24 03:04:19;;;;;;;21.65;4.95;;;36.50;45.00;;;;;;4993420;28;20076;-65
2022/07/24 03:06:46;;;;;;;26.92;5.32;;;36.40;45.00;;;;;;5019610;28;20105;-63
2022/07/24 03:09:12;;;;;;;32.08;5.15;;;36.30;45.20;;;;;;4994730;28;20119;-64
2022/07/24 03:11:38;;;;;;;25.85;4.93;;;36.30;45.40;;;;;;5008891;28;20159;-63
2022/07/24 03:14:05;;;;;;;35.28;5.10;;;36.20;45.40;;;;;;4993067;28;20741;-63
2022/07/24 03:16:31;;;;;;;18.75;4.47;;;36.20;45.60;;;;;;4991996;28;20536;-63
2022/07/24 03:18:58;;;;;;;23.95;5.40;;;36.10;45.60;;;;;;5008758;28;20162;-65
2022/07/24 03:21:24;;;;;;;20.27;5.07;;;36.10;45.20;;;;;;5007008;28;20085;-62
2022/07/24 03:23:50;;;;;;;23.15;5.18;;;36.10;45.00;;;;;;5004788;28;20132;-63
2022/07/24 03:26:17;;;;;;;36.33;9.35;;;36.00;44.50;;;;;;4992693;28;20084;-62
2022/07/24 03:28:43;;;;;;;23.55;4.38;;;36.00;43.50;;;;;;4992176;28;20160;-62
2022/07/24 03:31:10;;;;;;;28.67;4.80;;;36.00;43.30;;;;;;4991403;28;20431;-62
2022/07/24 03:33:36;;;;;;;21.50;4.47;;;35.90;43.50;;;;;;4993229;28;20080;-62
2022/07/24 03:36:03;;;;;;;24.10;4.78;;;35.80;44.10;;;;;;4991561;28;20146;-64
2022/07/24 03:38:29;;;;;;;28.77;5.40;;;35.80;44.70;;;;;;4993652;28;20108;-62
2022/07/24 03:40:56;;;;;;;23.80;4.60;;;35.70;45.10;;;;;;5009662;28;20529;-62
2022/07/24 03:43:22;;;;;;;23.40;5.40;;;35.70;45.40;;;;;;5009771;28;20240;-62
2022/07/24 03:45:48;;;;;;;29.45;5.90;;;35.70;46.20;;;;;;5010178;28;20095;-60
2022/07/24 03:48:15;;;;;;;29.70;6.13;;;35.70;46.80;;;;;;5002755;28;20076;-62
2022/07/24 03:50:41;;;;;;;25.77;5.68;;;35.60;46.90;;;;;;5008231;28;20085;-62
2022/07/24 03:53:08;;;;;;;31.20;5.28;;;35.60;47.00;;;;;;5007856;28;20084;-61
2022/07/24 03:55:34;;;;;;;27.58;5.85;;;35.70;47.30;;;;;;4992436;28;20080;-62
2022/07/24 03:58:01;;;;;;;30.98;6.10;;;35.50;48.00;;;;;;5007180;28;20080;-62
2022/07/24 04:00:27;;;;;;;25.95;5.63;;;35.50;48.30;;;;;;5010342;28;20077;-61
2022/07/24 04:02:53;;;;;;;24.75;5.13;;;35.30;48.10;;;;;;4992981;28;20077;-61
2022/07/24 04:05:20;;;;;;;23.80;5.38;;;35.30;47.90;;;;;;5008013;28;20162;-62
2022/07/24 04:07:46;;;;;;;19.52;5.00;;;35.30;48.10;;;;;;4992124;28;20091;-61
2022/07/24 04:10:13;;;;;;;28.05;5.15;;;35.30;48.50;;;;;;5008537;28;20527;-63
2022/07/24 04:12:39;;;;;;;24.70;5.72;;;35.20;48.90;;;;;;5009016;28;20184;-61
2022/07/24 04:15:06;;;;;;;28.67;5.88;;;35.20;49.10;;;;;;4975692;28;20074;-63
2022/07/24 04:17:33;;;;;;;25.75;5.15;;;35.20;49.30;;;;;;5007876;28;20578;-62
2022/07/24 04:19:59;;;;;;;26.38;6.85;;;35.10;49.60;;;;;;4991706;28;20086;-62
2022/07/24 04:22:25;;;;;;;22.52;6.13;;;35.10;49.70;;;;;;4992996;28;20562;-64
2022/07/24 04:24:52;;;;;;;31.90;7.07;;;35.10;49.80;;;;;;4990924;28;20459;-61
2022/07/24 04:27:18;;;;;;;33.10;5.95;;;35.10;49.90;;;;;;4991595;28;20711;-64
2022/07/24 04:29:45;;;;;;;30.40;7.30;;;35.10;50.10;;;;;;4990765;28;20120;-63
2022/07/24 04:32:11;;;;;;;36.38;7.97;;;35.10;49.90;;;;;;4994547;28;20093;-62
2022/07/24 04:34:37;;;;;;;25.98;6.28;;;34.90;49.60;;;;;;5008190;28;20092;-61
2022/07/24 04:37:04;;;;;;;37.47;7.07;;;35.00;49.70;;;;;;5007737;28;20179;-62
2022/07/24 04:39:30;;;;;;;25.05;5.65;;;34.90;49.60;;;;;;4994144;28;20104;-63
2022/07/24 04:41:56;;;;;;;28.10;6.70;;;34.90;49.40;;;;;;4998063;28;20089;-61
2022/07/24 04:44:23;;;;;;;22.52;5.70;;;34.80;49.50;;;;;;5008483;28;20091;-63
2022/07/24 04:46:49;;;;;;;25.08;6.18;;;34.80;50.10;;;;;;5008198;28;20610;-62
2022/07/24 04:49:15;;;;;;;21.17;6.22;;;34.80;51.40;;;;;;5007692;28;20276;-62
2022/07/24 04:51:42;;;;;;;26.35;6.50;;;34.60;52.20;;;;;;5007878;28;20065;-64
2022/07/24 04:54:08;;;;;;;50.90;7.18;;;34.60;53.10;;;;;;5008653;28;20070;-62
2022/07/24 04:56:35;;;;;;;23.63;6.43;;;34.60;53.80;;;;;;4976533;28;20076;-62
2022/07/24 04:59:04;;;;;;;30.23;6.65;;;34.50;54.10;;;;;;5008416;28;20073;-64
2022/07/24 05:01:31;;;;;;;30.05;7.38;;;34.40;54.80;;;;;;4976684;28;20151;-63
2022/07/24 05:03:58;;;;;;;26.00;7.55;;;34.40;55.60;;;;;;4990929;28;20089;-63
2022/07/24 05:06:25;;;;;;;33.08;6.88;;;34.20;56.30;;;;;;4991262;28;20120;-63
2022/07/24 05:08:52;;;;;;;33.55;6.80;;;34.30;56.70;;;;;;5007764;28;20077;-61
2022/07/24 05:11:18;;;;;;;27.30;7.30;;;34.10;57.40;;;;;;4991480;28;20078;-62
2022/07/24 05:13:44;;;;;;;30.77;7.45;;;34.10;58.00;;;;;;4991297;28;20455;-61
2022/07/24 05:16:11;;;;;;;31.65;7.80;;;34.00;58.50;;;;;;4990082;28;20089;-62
2022/07/24 05:18:37;;;;;;;32.35;7.75;;;33.80;59.00;;;;;;4975340;28;20159;-63
2022/07/24 05:21:04;;;;;;;37.63;9.02;;;33.80;59.30;;;;;;5008998;28;20081;-63
2022/07/24 05:23:30;;;;;;;30.27;8.50;;;33.90;59.50;;;;;;4990161;28;20092;-64
2022/07/24 05:25:57;;;;;;;30.65;8.48;;;33.80;59.70;;;;;;5008112;28;20080;-64
2022/07/24 05:28:23;;;;;;;27.10;7.50;;;33.80;59.90;;;;;;5006507;28;20131;-64
2022/07/24 05:30:49;;;;;;;35.47;7.80;;;33.60;60.10;;;;;;5011241;28;20084;-67
2022/07/24 05:33:16;;;;;;;36.47;8.65;;;33.60;60.30;;;;;;4991059;28;20085;-62
2022/07/24 05:35:42;;;;;;;28.75;7.55;;;33.60;60.70;;;;;;5008757;28;20097;-66
2022/07/24 05:38:09;;;;;;;25.35;6.70;;;33.60;61.20;;;;;;4990714;28;20451;-63
2022/07/24 05:40:35;;;;;;;33.50;8.25;;;33.60;61.10;;;;;;5008970;28;20083;-64
2022/07/24 05:43:01;;;;;;;33.20;7.63;;;33.50;61.40;;;;;;4974180;28;20097;-63
2022/07/24 05:45:28;;;;;;;31.30;6.53;;;33.50;61.50;;;;;;5008350;28;20127;-63
2022/07/24 05:47:54;;;;;;;32.17;7.50;;;33.40;61.90;;;;;;5006997;28;20163;-62
2022/07/24 05:50:20;;;;;;;34.22;7.65;;;33.40;62.70;;;;;;5008469;28;20116;-64
2022/07/24 05:52:47;;;;;;;28.63;7.07;;;33.40;63.60;;;;;;4991045;28;20096;-65
2022/07/24 05:55:13;;;;;;;35.70;7.32;;;33.40;63.40;;;;;;4990213;28;20546;-60
2022/07/24 05:57:39;;;;;;;24.77;7.13;;;33.30;64.40;;;;;;4991225;28;20172;-62
2022/07/24 06:00:06;;;;;;;34.00;6.65;;;33.20;65.50;;;;;;4974656;28;20076;-61
2022/07/24 06:02:33;;;;;;;39.85;7.63;;;33.10;66.60;;;;;;5007669;28;20116;-63
2022/07/24 06:04:59;;;;;;;40.38;8.75;;;33.10;68.10;;;;;;4990495;28;20088;-63
2022/07/24 06:07:25;;;;;;;47.95;8.70;;;33.10;69.00;;;;;;4974410;28;20212;-61
2022/07/24 06:09:52;;;;;;;34.28;7.53;;;33.10;69.00;;;;;;5007761;28;20096;-64
2022/07/24 06:12:18;;;;;;;33.60;7.75;;;33.10;69.40;;;;;;5007774;28;20074;-64
2022/07/24 06:14:45;;;;;;;43.17;8.45;;;33.00;69.80;;;;;;4980836;28;20090;-63
2022/07/24 06:17:11;;;;;;;30.05;7.72;;;32.90;71.20;;;;;;4994472;28;20109;-62
2022/07/24 06:19:37;;;;;;;31.00;8.00;;;33.00;72.10;;;;;;5011144;28;20073;-65
2022/07/24 06:22:04;;;;;;;38.17;8.55;;;32.90;72.70;;;;;;4977957;28;20104;-65
2022/07/24 06:24:30;;;;;;;39.50;7.78;;;32.90;73.70;;;;;;5010270;28;20132;-63
2022/07/24 06:26:59;;;;;;;35.30;8.23;;;32.80;74.70;;;;;;5011322;28;20089;-62
2022/07/24 06:29:25;;;;;;;26.42;7.03;;;32.80;75.70;;;;;;4994313;28;20116;-63
2022/07/24 06:31:51;;;;;;;32.58;7.45;;;32.70;77.10;;;;;;4995671;28;20069;-63
2022/07/24 06:34:23;;;;;;;40.70;7.72;;;32.60;78.20;;;;;;4994388;28;20093;-62
2022/07/24 06:36:52;;;;;;;33.33;7.63;;;32.60;78.80;;;;;;4994924;28;20085;-63
2022/07/24 06:39:19;;;;;;;34.42;7.30;;;32.60;79.60;;;;;;4977986;28;20132;-63
2022/07/24 06:41:45;;;;;;;47.97;7.95;;;32.50;80.80;;;;;;5010120;28;20164;-62
2022/07/24 06:44:12;;;;;;;30.73;7.20;;;32.50;81.70;;;;;;4992812;28;20089;-62
2022/07/24 06:46:38;;;;;;;30.88;7.93;;;32.30;83.00;;;;;;5011216;28;20524;-64
2022/07/24 06:49:04;;;;;;;44.53;11.40;;;32.30;84.10;;;;;;4992646;28;20116;-60
2022/07/24 06:51:31;;;;;;;41.30;7.60;;;32.20;86.20;;;;;;5010507;28;20065;-62
2022/07/24 06:53:57;;;;;;;31.67;7.57;;;32.20;87.50;;;;;;4977740;28;20078;-64
2022/07/24 06:56:24;;;;;;;42.65;8.05;;;32.10;89.20;;;;;;4993998;28;20083;-64
2022/07/24 06:58:50;;;;;;;36.92;6.68;;;32.10;90.20;;;;;;5009910;28;20085;-62
2022/07/24 07:01:16;;;;;;;36.72;7.80;;;32.10;90.80;;;;;;4995128;28;20081;-61
2022/07/24 07:03:43;;;;;;;39.45;6.90;;;32.00;91.60;;;;;;5012578;28;20094;-62
2022/07/24 07:06:09;;;;;;;43.13;7.57;;;31.90;92.40;;;;;;5014300;28;20109;-64
2022/07/24 07:08:35;;;;;;;45.28;9.13;;;31.90;93.20;;;;;;4996844;28;20133;-61
2022/07/24 07:11:02;;;;;;;36.42;8.35;;;31.80;93.90;;;;;;5011513;28;20443;-62
2022/07/24 07:13:28;;;;;;;37.45;7.72;;;31.80;94.80;;;;;;4996697;28;20823;-64
2022/07/24 07:15:55;;;;;;;37.08;8.52;;;31.80;95.20;;;;;;4996289;28;20089;-61
2022/07/24 07:18:21;;;;;;;35.15;7.72;;;31.80;95.30;;;;;;4978380;28;20119;-63
2022/07/24 07:20:53;;;;;;;38.83;8.70;;;31.80;95.70;;;;;;5012766;28;20080;-65
2022/07/24 07:23:26;;;;;;;43.47;8.48;;;31.80;96.10;;;;;;5008347;28;20100;-62
2022/07/24 07:25:54;;;;;;;38.90;9.30;;;31.70;96.30;;;;;;4979123;28;20065;-63
2022/07/24 07:28:20;;;;;;;40.88;8.75;;;31.60;96.80;;;;;;4976085;28;20188;-62
2022/07/24 07:30:47;;;;;;;40.00;8.45;;;31.60;97.50;;;;;;4980729;28;20077;-62
2022/07/24 07:33:13;;;;;;;39.78;9.00;;;31.70;97.80;;;;;;5014979;28;20115;-62
2022/07/24 07:35:39;;;;;;;41.50;8.43;;;31.70;98.10;;;;;;4992962;28;20187;-62
2022/07/24 07:38:06;;;;;;;44.05;9.02;;;31.60;98.20;;;;;;4993392;28;20439;-63
2022/07/24 07:40:32;;;;;;;35.70;8.27;;;31.60;98.50;;;;;;5009954;28;20077;-62
2022/07/24 07:42:59;;;;;;;39.72;8.05;;;31.60;99.20;;;;;;4993039;28;20077;-62
2022/07/24 07:45:25;;;;;;;33.30;7.78;;;31.60;99.60;;;;;;4960909;28;20073;-62
2022/07/24 07:47:51;;;;;;;40.40;8.77;;;31.60;99.90;;;;;;5009642;28;20093;-62
2022/07/24 07:50:18;;;;;;;30.80;8.32;;;31.60;99.90;;;;;;4992140;28;20200;-62
2022/07/24 07:52:44;;;;;;;34.85;7.57;;;31.40;99.90;;;;;;4991857;28;20077;-63
2022/07/24 07:55:11;;;;;;;32.20;7.70;;;31.40;99.90;;;;;;5008408;28;20077;-62
2022/07/24 07:57:39;;;;;;;44.50;8.82;;;31.50;99.90;;;;;;4992402;28;20198;-62
2022/07/24 08:00:06;;;;;;;32.25;8.25;;;31.50;99.90;;;;;;5002119;28;20073;-63
2022/07/24 08:02:33;;;;;;;38.08;8.60;;;31.40;99.90;;;;;;5009119;28;20073;-63
2022/07/24 08:04:59;;;;;;;43.03;9.55;;;31.30;99.90;;;;;;4975896;28;20097;-64
2022/07/24 08:07:25;;;;;;;38.67;8.38;;;31.30;99.90;;;;;;4992367;28;20080;-63
2022/07/24 08:09:52;;;;;;;38.92;8.85;;;31.30;99.90;;;;;;5008798;28;20090;-63
2022/07/24 08:12:18;;;;;;;39.63;8.90;;;31.20;99.90;;;;;;5009026;28;20115;-62
2022/07/24 08:14:44;;;;;;;38.78;8.85;;;31.20;99.90;;;;;;5010260;28;20125;-63
2022/07/24 08:17:12;;;;;;;39.80;9.38;;;31.20;99.90;;;;;;4991777;28;20100;-62
2022/07/24 08:19:38;;;;;;;31.08;7.82;;;31.20;99.90;;;;;;4993033;28;20073;-62
2022/07/24 08:22:05;;;;;;;35.88;8.70;;;31.20;99.90;;;;;;5008492;28;20224;-63
2022/07/24 08:24:32;;;;;;;39.85;8.55;;;31.10;99.90;;;;;;5008607;28;20573;-63
2022/07/24 08:26:59;;;;;;;48.22;9.73;;;31.00;99.90;;;;;;5009341;28;20070;-63
2022/07/24 08:29:26;;;;;;;45.22;10.07;;;30.90;99.90;;;;;;5007439;28;20086;-62
2022/07/24 08:31:53;;;;;;;45.03;8.48;;;30.90;99.90;;;;;;4977254;28;21354;-63
2022/07/24 08:34:19;;;;;;;40.58;9.48;;;30.90;99.90;;;;;;5009255;28;20081;-63
2022/07/24 08:36:45;;;;;;;40.10;8.73;;;30.90;99.90;;;;;;4991082;28;20099;-63
2022/07/24 08:39:13;;;;;;;38.22;8.73;;;30.90;99.90;;;;;;5009111;28;20116;-63
2022/07/24 08:41:40;;;;;;;42.20;9.27;;;30.90;99.90;;;;;;4976148;28;20479;-62
2022/07/24 08:44:06;;;;;;;41.33;8.77;;;30.80;99.90;;;;;;5007353;28;20467;-61
2022/07/24 08:46:36;;;;;;;35.75;8.27;;;30.90;99.90;;;;;;4975101;28;20078;-62
2022/07/24 08:49:03;;;;;;;43.28;8.52;;;30.80;99.90;;;;;;5006474;28;20106;-62
2022/07/24 08:51:35;;;;;;;36.00;8.10;;;30.80;99.90;;;;;;4991389;28;20127;-63
2022/07/24 08:54:02;;;;;;;45.17;8.77;;;30.80;99.90;;;;;;4991821;28;20077;-63
2022/07/24 08:56:36;;;;;;;43.08;8.18;;;30.80;99.90;;;;;;5008557;28;20077;-63
2022/07/24 08:59:03;;;;;;;33.45;7.22;;;30.80;99.90;;;;;;4992058;28;20068;-62
2022/07/24 09:01:30;;;;;;;39.42;8.88;;;30.90;99.90;;;;;;4974990;28;20079;-62
2022/07/24 09:03:56;;;;;;;37.67;9.07;;;30.80;99.90;;;;;;4991319;28;20147;-62
2022/07/24 09:06:22;;;;;;;49.88;9.85;;;30.80;99.90;;;;;;4990549;28;20436;-61
2022/07/24 09:09:02;;;;;;;38.25;8.88;;;30.80;99.90;;;;;;4992217;28;20080;-62
2022/07/24 09:11:29;;;;;;;37.83;9.00;;;30.80;99.90;;;;;;5007739;28;20101;-62
2022/07/24 09:17:21;;;;;;;51.78;10.20;;;30.80;99.90;;;;;;4948445;28;20541;-62
2022/07/24 09:19:56;;;;;;;45.55;9.98;;;30.80;99.90;;;;;;4945087;28;20551;-62
2022/07/24 09:22:33;;;;;;;37.25;9.15;;;30.70;99.90;;;;;;4932429;28;20099;-62
2022/07/24 09:25:18;;;;;;;41.53;8.98;;;30.60;99.90;;;;;;4947989;28;20122;-62
2022/07/24 09:28:01;;;;;;;41.92;8.75;;;30.60;99.90;;;;;;4948663;28;20170;-62
2022/07/24 09:30:41;;;;;;;39.05;8.50;;;30.60;99.90;;;;;;4949180;28;20476;-62
2022/07/24 09:33:21;;;;;;;34.33;8.05;;;30.60;99.90;;;;;;4948123;28;20098;-62
2022/07/24 09:35:52;;;;;;;40.40;9.10;;;30.60;99.90;;;;;;4948356;28;20118;-62
2022/07/24 09:38:23;;;;;;;39.38;8.05;;;30.50;99.90;;;;;;4948370;28;20080;-62
2022/07/24 09:40:54;;;;;;;35.92;8.32;;;30.40;99.90;;;;;;4948534;28;20105;-62
2022/07/24 09:43:23;;;;;;;40.10;8.98;;;30.40;99.90;;;;;;4947898;28;20828;-62
2022/07/24 09:45:58;;;;;;;35.92;8.43;;;30.40;99.90;;;;;;4947189;28;20461;-63
2022/07/24 09:48:30;;;;;;;46.05;8.93;;;30.40;99.90;;;;;;4950133;28;20101;-66
2022/07/24 09:51:00;;;;;;;34.33;8.82;;;30.40;99.90;;;;;;4952776;28;20090;-66
2022/07/24 09:53:31;;;;;;;39.95;7.47;;;30.50;99.90;;;;;;4985023;28;20627;-65
2022/07/24 09:56:03;;;;;;;36.60;8.55;;;30.60;99.90;;;;;;5012083;28;20081;-66
2022/07/24 09:58:31;;;;;;;42.55;9.82;;;30.60;99.90;;;;;;4994543;28;20079;-65
2022/07/24 10:01:00;;;;;;;37.40;8.73;;;30.70;99.90;;;;;;4995382;28;20074;-65
2022/07/24 10:03:29;;;;;;;45.40;9.48;;;30.80;99.90;;;;;;4982047;28;20096;-64
2022/07/24 10:06:02;;;;;;;38.13;8.93;;;30.60;99.90;;;;;;4991481;28;20551;-64
2022/07/24 10:08:29;;;;;;;37.83;9.32;;;30.60;99.90;;;;;;4994813;28;20069;-63
2022/07/24 10:10:56;;;;;;;30.52;8.20;;;30.60;99.90;;;;;;5011635;28;20076;-63
2022/07/24 10:13:27;;;;;;;31.45;7.35;;;30.60;99.90;;;;;;4995216;28;20088;-65
2022/07/24 10:16:00;;;;;;;44.70;9.20;;;30.60;99.90;;;;;;5010476;28;20074;-64
2022/07/24 10:18:48;;;;;;;35.70;8.27;;;30.70;99.90;;;;;;5010869;28;20073;-64
2022/07/24 10:21:27;;;;;;;43.97;8.18;;;30.70;99.90;;;;;;4977648;28;20435;-65
2022/07/24 10:24:10;;;;;;;39.17;8.63;;;30.60;99.90;;;;;;5010784;28;20085;-63
2022/07/24 10:26:45;;;;;;;32.50;7.10;;;30.80;99.90;;;;;;5010856;28;20548;-64
2022/07/24 10:29:20;;;;;;;36.90;8.35;;;30.70;99.90;;;;;;4994581;28;20589;-65
2022/07/24 10:31:54;;;;;;;42.13;8.93;;;30.70;99.90;;;;;;4995485;28;20112;-65
2022/07/24 10:34:51;;;;;;;39.42;9.18;;;30.70;99.90;;;;;;4995467;28;20443;-63
2022/07/24 10:37:31;;;;;;;40.90;8.57;;;30.70;99.90;;;;;;5010905;28;20077;-66
2022/07/24 10:40:27;;;;;;;42.20;9.20;;;30.70;99.90;;;;;;5011687;28;20119;-65
2022/07/24 10:43:08;;;;;;;37.05;8.63;;;30.70;99.90;;;;;;5009788;28;20084;-65
2022/07/24 10:45:36;;;;;;;42.05;9.10;;;30.60;99.90;;;;;;5009623;28;20118;-64
2022/07/24 10:48:21;;;;;;;37.58;8.57;;;30.40;99.90;;;;;;4993243;28;20100;-65
2022/07/24 10:51:07;;;;;;;42.10;8.95;;;30.60;99.90;;;;;;5008156;28;20111;-65
2022/07/24 10:53:37;;;;;;;32.40;8.00;;;30.70;99.90;;;;;;5008853;28;20077;-66
2022/07/24 10:56:38;;;;;;;47.55;8.27;;;30.60;99.90;;;;;;5008644;28;20086;-64
2022/07/24 10:59:07;;;;;;;41.20;8.30;;;30.40;99.90;;;;;;4993312;28;20103;-64
2022/07/24 11:01:47;;;;;;;38.80;7.72;;;30.50;99.90;;;;;;4992275;28;20164;-64
2022/07/24 11:04:32;;;;;;;33.20;7.75;;;30.40;99.90;;;;;;5011579;28;20093;-57
2022/07/24 11:07:13;;;;;;;43.65;8.30;;;30.30;99.90;;;;;;4976605;28;20444;-63
2022/07/24 11:10:15;;;;;;;38.33;8.32;;;30.40;99.90;;;;;;4993358;28;20069;-63
2022/07/24 11:12:43;;;;;;;36.20;7.75;;;30.40;99.90;;;;;;4932058;29;20497;-66
2022/07/24 11:17:54;;;;;;;41.60;9.63;;;30.40;99.90;;;;;;4931443;29;20115;-64
2022/07/24 11:20:22;;;;;;;32.00;8.05;;;30.30;99.90;;;;;;4915258;29;20087;-63
2022/07/24 11:22:54;;;;;;;37.28;8.63;;;30.40;99.90;;;;;;4915024;29;20102;-63
2022/07/24 11:25:25;;;;;;;41.88;8.93;;;30.30;99.90;;;;;;4936887;29;20080;-64
2022/07/24 11:27:57;;;;;;;41.20;9.23;;;30.20;99.90;;;;;;4931550;29;20076;-64
2022/07/24 11:30:26;;;;;;;38.30;8.32;;;30.20;99.90;;;;;;4918213;29;20449;-65
2022/07/24 11:32:53;;;;;;;43.28;8.63;;;30.20;99.90;;;;;;4935484;29;20170;-64
2022/07/24 11:35:32;;;;;;;34.50;8.05;;;30.20;99.90;;;;;;4931524;29;20090;-64
2022/07/24 11:38:01;;;;;;;39.55;8.60;;;30.20;99.90;;;;;;4934382;29;20526;-65
2022/07/24 11:40:27;;;;;;;29.35;8.25;;;30.10;99.90;;;;;;4931373;29;20506;-64
2022/07/24 11:43:04;;;;;;;41.05;9.60;;;30.10;99.90;;;;;;4929816;29;20461;-66
2022/07/24 11:45:30;;;;;;;31.92;7.80;;;30.00;99.90;;;;;;4916966;28;20072;-67
2022/07/24 11:47:57;;;;;;;44.80;9.02;;;30.00;99.90;;;;;;4993758;28;20071;-65
2022/07/24 11:50:26;;;;;;;40.42;8.20;;;30.00;99.90;;;;;;4991924;28;20110;-66
2022/07/24 11:52:53;;;;;;;38.03;8.93;;;30.00;99.90;;;;;;5009049;28;20602;-65
2022/07/24 11:55:24;;;;;;;37.80;9.27;;;29.90;99.90;;;;;;4992870;28;20184;-63
2022/07/24 11:57:53;;;;;;;37.25;8.05;;;29.80;99.90;;;;;;4977543;28;20124;-64
2022/07/24 12:00:23;;;;;;;34.60;8.57;;;29.90;99.90;;;;;;4992501;28;20505;-65
2022/07/24 12:02:53;;;;;;;39.42;8.32;;;29.90;99.90;;;;;;4991336;28;20093;-65
2022/07/24 12:05:40;;;;;;;39.47;8.40;;;29.90;99.90;;;;;;4992915;28;20100;-64
2022/07/24 12:08:26;;;;;;;39.97;7.72;;;30.00;99.90;;;;;;4990725;28;20495;-64
2022/07/24 12:11:01;;;;;;;37.47;9.25;;;29.90;99.90;;;;;;5007224;28;20080;-64
2022/07/24 12:13:33;;;;;;;41.40;8.45;;;29.90;99.90;;;;;;5009443;28;20080;-63
2022/07/24 12:15:59;;;;;;;40.22;8.80;;;29.80;99.90;;;;;;4989745;28;20560;-65
2022/07/24 12:18:26;;;;;;;38.97;8.68;;;29.70;99.90;;;;;;4992753;28;20086;-64
2022/07/24 12:20:59;;;;;;;32.28;7.72;;;29.80;99.90;;;;;;4992359;28;20088;-65
2022/07/24 12:23:26;;;;;;;34.17;7.72;;;29.70;99.90;;;;;;5008440;28;20540;-63
2022/07/24 12:25:52;;;;;;;34.47;8.73;;;29.80;99.90;;;;;;4991739;28;20077;-62
2022/07/24 12:28:19;;;;;;;47.00;9.05;;;29.70;99.90;;;;;;4991036;28;20136;-65
2022/07/24 12:30:50;;;;;;;38.42;8.00;;;29.80;99.90;;;;;;4991692;28;20077;-64
2022/07/24 12:33:22;;;;;;;43.40;9.25;;;29.70;99.90;;;;;;5008934;28;20065;-65
2022/07/24 12:35:57;;;;;;;42.72;8.68;;;29.80;99.90;;;;;;4992007;28;20090;-67
2022/07/24 12:38:51;;;;;;;39.78;8.68;;;29.70;99.90;;;;;;4993095;28;20074;-66
2022/07/24 12:41:21;;;;;;;47.53;8.63;;;29.80;99.90;;;;;;4960117;28;20128;-65
2022/07/24 12:43:55;;;;;;;38.15;9.35;;;29.70;99.90;;;;;;4959646;28;20607;-64
2022/07/24 12:46:39;;;;;;;41.45;8.48;;;29.70;99.90;;;;;;5007788;28;20073;-66
2022/07/24 12:49:13;;;;;;;34.28;7.32;;;29.70;99.90;;;;;;5006753;28;20105;-64